createdAt,value
2019-04-14T00:01:49.898Z,99.90
2019-04-14T00:04:22.502Z,99.90
2019-04-14T00:06:52.583Z,99.90
2019-04-14T00:09:22.727Z,99.90
2019-04-14T00:11:52.752Z,99.90
2019-04-14T00:14:22.933Z,99.90
2019-04-14T00:16:53.181Z,99.90
2019-04-14T00:19:34.895Z,99.90
2019-04-14T00:22:05.326Z,99.90
2019-04-14T00:24:36.393Z,99.90
2019-04-14T00:27:06.404Z,99.90
2019-04-14T00:29:37.138Z,99.90
2019-04-14T00:32:09.437Z,99.90
2019-04-14T00:34:52.998Z,99.90
2019-04-14T00:37:25.188Z,99.90
2019-04-14T00:40:03.958Z,99.90
2019-04-14T00:42:39.023Z,99.90
2019-04-14T00:45:11.324Z,99.90
2019-04-14T00:47:56.968Z,99.90
2019-04-14T00:50:17.145Z,99.70
2019-04-14T00:52:47.844Z,99.60
2019-04-14T00:55:18.333Z,99.40
2019-04-14T00:57:48.652Z,99.20
2019-04-14T01:00:19.317Z,99.00
2019-04-14T01:02:51.484Z,98.80
2019-04-14T01:05:21.761Z,98.50
2019-04-14T01:07:52.330Z,98.40
2019-04-14T01:10:23.322Z,98.10
2019-04-14T01:12:53.936Z,98.10
2019-04-14T01:15:24.622Z,98.10
2019-04-14T01:17:54.978Z,97.80
2019-04-14T01:20:25.365Z,97.90
2019-04-14T01:22:55.311Z,97.70
2019-04-14T01:25:26.062Z,97.50
2019-04-14T01:27:56.020Z,97.40
2019-04-14T01:30:26.268Z,97.30
2019-04-14T01:32:56.506Z,97.10
2019-04-14T01:35:27.096Z,96.90
2019-04-14T01:37:57.261Z,97.00
2019-04-14T01:40:27.133Z,96.70
2019-04-14T01:42:57.280Z,96.60
2019-04-14T01:45:27.507Z,96.20
2019-04-14T01:47:57.573Z,96.10
2019-04-14T01:50:36.565Z,96.30
2019-04-14T01:53:25.034Z,96.10
2019-04-14T01:55:56.990Z,96.00
2019-04-14T01:58:29.299Z,96.10
2019-04-14T02:01:04.127Z,95.80
2019-04-14T02:03:34.506Z,96.00
2019-04-14T02:06:04.774Z,95.40
2019-04-14T02:08:35.157Z,95.40
2019-04-14T02:11:05.341Z,95.50
2019-04-14T02:13:35.440Z,95.40
2019-04-14T02:16:15.089Z,95.00
2019-04-14T02:18:38.312Z,94.80
2019-04-14T02:21:08.509Z,94.70
2019-04-14T02:23:38.677Z,94.20
2019-04-14T02:26:09.122Z,94.10
2019-04-14T02:28:39.667Z,93.90
2019-04-14T02:31:24.670Z,93.70
2019-04-14T02:34:09.509Z,93.60
2019-04-14T02:36:41.702Z,93.20
2019-04-14T02:39:15.415Z,93.20
2019-04-14T02:41:49.349Z,93.00
2019-04-14T02:44:15.319Z,93.00
2019-04-14T02:46:49.784Z,92.70
2019-04-14T02:49:11.176Z,92.80
2019-04-14T02:54:24.124Z,92.80
2019-04-14T02:56:52.767Z,92.10
2019-04-14T02:59:22.861Z,92.20
2019-04-14T03:02:09.311Z,92.00
2019-04-14T03:04:19.733Z,92.40
2019-04-14T03:06:58.210Z,92.10
2019-04-14T03:14:30.892Z,91.40
2019-04-14T03:17:25.114Z,91.80
2019-04-14T03:25:06.252Z,90.80
2019-04-14T03:40:45.223Z,90.20
2019-04-14T03:43:11.300Z,90.30
2019-04-14T03:53:19.189Z,89.60
2019-04-14T03:55:54.433Z,89.10
2019-04-14T03:58:18.884Z,89.80
2019-04-14T04:00:49.145Z,89.90
2019-04-14T04:03:19.612Z,89.40
2019-04-14T04:05:49.968Z,88.00
2019-04-14T04:08:20.133Z,88.20
2019-04-14T04:10:55.347Z,88.00
2019-04-14T04:13:25.926Z,88.70
2019-04-14T04:15:58.345Z,87.70
2019-04-14T04:18:30.800Z,86.90
2019-04-14T04:21:03.136Z,88.10
2019-04-14T04:23:53.302Z,88.40
2019-04-14T04:26:30.376Z,87.00
2019-04-14T04:29:02.881Z,87.10
2019-04-14T04:31:35.031Z,87.00
2019-04-14T04:34:10.347Z,85.60
2019-04-14T04:36:48.769Z,87.10
2019-04-14T04:39:21.351Z,86.40
2019-04-14T04:41:51.574Z,85.30
2019-04-14T04:44:22.314Z,85.90
2019-04-14T04:46:52.756Z,85.00
2019-04-14T04:49:25.778Z,85.80
2019-04-14T04:51:55.038Z,84.50
2019-04-14T04:54:25.679Z,84.60
2019-04-14T04:56:55.854Z,83.20
2019-04-14T04:59:25.775Z,82.40
2019-04-14T05:01:55.905Z,81.60
2019-04-14T05:04:26.594Z,80.50
2019-04-14T05:07:01.501Z,80.20
2019-04-14T05:09:36.333Z,82.90
2019-04-14T05:12:20.128Z,79.80
2019-04-14T05:15:00.971Z,78.80
2019-04-14T05:17:32.412Z,77.90
2019-04-14T05:20:03.209Z,76.50
2019-04-14T05:22:33.310Z,77.20
2019-04-14T05:25:03.980Z,75.20
2019-04-14T05:27:34.153Z,76.20
2019-04-14T05:30:06.781Z,76.80
2019-04-14T05:32:36.971Z,77.80
2019-04-14T05:35:07.536Z,75.70
2019-04-14T05:37:37.832Z,76.00
2019-04-14T05:40:08.404Z,77.40
2019-04-14T05:42:38.494Z,77.10
2019-04-14T05:45:08.955Z,76.90
2019-04-14T05:47:39.381Z,76.00
2019-04-14T05:50:09.522Z,73.90
2019-04-14T05:52:40.451Z,73.30
2019-04-14T05:55:11.236Z,71.10
2019-04-14T05:57:41.629Z,70.70
2019-04-14T06:00:14.311Z,68.20
2019-04-14T06:02:44.477Z,67.10
2019-04-14T06:05:14.509Z,71.10
2019-04-14T06:07:44.288Z,72.50
2019-04-14T06:10:14.050Z,72.60
2019-04-14T06:12:43.791Z,74.00
2019-04-14T06:15:13.619Z,71.40
2019-04-14T06:17:43.388Z,73.20
2019-04-14T06:20:13.534Z,69.40
2019-04-14T06:22:43.279Z,68.50
2019-04-14T06:25:13.125Z,70.20
2019-04-14T06:27:43.707Z,70.90
2019-04-14T06:30:15.115Z,70.40
2019-04-14T06:32:47.320Z,68.60
2019-04-14T06:35:21.655Z,67.40
2019-04-14T06:37:58.795Z,67.70
2019-04-14T06:40:30.090Z,69.30
2019-04-14T06:42:59.868Z,70.00
2019-04-14T06:45:29.607Z,70.60
2019-04-14T06:47:59.368Z,69.20
2019-04-14T06:50:29.123Z,68.70
2019-04-14T06:52:58.878Z,69.50
2019-04-14T06:55:28.656Z,70.20
2019-04-14T06:57:58.402Z,66.90
2019-04-14T07:00:28.132Z,70.00
2019-04-14T07:02:57.875Z,69.10
2019-04-14T07:05:27.621Z,71.30
2019-04-14T07:07:57.684Z,69.60
2019-04-14T07:10:27.565Z,67.50
2019-04-14T07:12:58.360Z,69.50
2019-04-14T07:15:28.135Z,68.60
2019-04-14T07:17:57.899Z,72.60
2019-04-14T07:20:27.655Z,69.60
2019-04-14T07:22:57.381Z,68.40
2019-04-14T07:25:29.687Z,68.90
2019-04-14T07:27:59.524Z,69.40
2019-04-14T07:30:47.368Z,69.20
2019-04-14T07:33:24.682Z,67.00
2019-04-14T07:36:08.173Z,65.00
2019-04-14T07:38:43.241Z,68.10
2019-04-14T07:41:20.502Z,66.00
2019-04-14T07:44:01.144Z,64.20
2019-04-14T07:46:35.791Z,67.30
2019-04-14T07:49:07.104Z,67.80
2019-04-14T07:51:40.921Z,66.10
2019-04-14T07:54:14.928Z,66.40
2019-04-14T07:56:46.260Z,67.60
2019-04-14T07:59:23.172Z,66.80
2019-04-14T08:01:54.501Z,66.60
2019-04-14T08:04:25.798Z,66.60
2019-04-14T08:06:56.286Z,65.70
2019-04-14T08:09:27.033Z,64.40
2019-04-14T08:11:56.843Z,64.60
2019-04-14T08:14:27.601Z,64.40
2019-04-14T08:16:57.344Z,65.70
2019-04-14T08:19:27.105Z,63.00
2019-04-14T08:21:56.841Z,60.60
2019-04-14T08:24:26.632Z,58.50
2019-04-14T08:26:56.393Z,57.40
2019-04-14T08:29:26.156Z,57.00
2019-04-14T08:31:56.917Z,55.10
2019-04-14T08:34:26.641Z,56.70
2019-04-14T08:36:56.440Z,53.60
2019-04-14T08:39:26.179Z,58.00
2019-04-14T08:42:07.252Z,57.20
2019-04-14T08:44:39.618Z,57.80
2019-04-14T08:47:16.891Z,58.40
2019-04-14T08:50:00.007Z,57.40
2019-04-14T08:52:40.391Z,56.10
2019-04-14T08:55:14.563Z,55.40
2019-04-14T08:57:51.656Z,53.20
2019-04-14T09:00:39.523Z,53.40
2019-04-14T09:03:11.788Z,50.70
2019-04-14T09:05:45.797Z,49.40
2019-04-14T09:08:22.951Z,46.60
2019-04-14T09:10:57.233Z,46.40
2019-04-14T09:13:27.000Z,45.50
2019-04-14T09:15:56.729Z,46.50
2019-04-14T09:18:26.661Z,44.80
2019-04-14T09:20:56.394Z,43.20
2019-04-14T09:23:26.155Z,39.40
2019-04-14T09:25:55.919Z,40.60
2019-04-14T09:28:25.654Z,41.30
2019-04-14T09:30:55.729Z,43.80
2019-04-14T09:33:25.475Z,49.10
2019-04-14T09:35:56.481Z,42.50
2019-04-14T09:38:26.227Z,43.80
2019-04-14T09:40:56.015Z,43.20
2019-04-14T09:43:26.122Z,43.30
2019-04-14T09:45:55.868Z,45.30
2019-04-14T09:48:25.656Z,43.10
2019-04-14T09:51:04.839Z,46.20
2019-04-14T09:53:26.829Z,47.00
2019-04-14T09:55:56.587Z,42.70
2019-04-14T09:58:26.354Z,42.90
2019-04-14T10:00:56.122Z,43.80
2019-04-14T10:03:25.872Z,40.10
2019-04-14T10:05:55.656Z,40.20
2019-04-14T10:08:25.408Z,36.70
2019-04-14T10:10:55.236Z,38.50
2019-04-14T10:13:25.006Z,40.20
2019-04-14T10:15:54.745Z,40.70
2019-04-14T10:18:24.543Z,41.60
2019-04-14T10:20:54.257Z,42.20
2019-04-14T10:23:24.001Z,39.60
2019-04-14T10:25:53.772Z,39.70
2019-04-14T10:28:24.539Z,38.30
2019-04-14T10:31:04.235Z,39.40
2019-04-14T10:33:34.073Z,39.50
2019-04-14T10:36:03.865Z,38.90
2019-04-14T10:38:33.618Z,36.20
2019-04-14T10:41:03.364Z,36.80
2019-04-14T10:43:33.117Z,36.20
2019-04-14T10:46:02.853Z,36.60
2019-04-14T10:48:33.785Z,33.90
2019-04-14T10:51:03.519Z,37.90
2019-04-14T10:53:33.287Z,38.30
2019-04-14T10:56:03.056Z,38.40
2019-04-14T10:58:32.788Z,41.00
2019-04-14T11:01:02.561Z,40.80
2019-04-14T11:03:33.797Z,42.40
2019-04-14T11:06:14.305Z,41.80
2019-04-14T11:08:44.236Z,40.40
2019-04-14T11:11:16.189Z,40.80
2019-04-14T11:13:48.628Z,43.40
2019-04-14T11:16:18.431Z,38.30
2019-04-14T11:18:48.289Z,39.90
2019-04-14T11:21:18.029Z,38.00
2019-04-14T11:23:47.793Z,36.70
2019-04-14T11:26:17.544Z,36.80
2019-04-14T11:28:47.345Z,34.20
2019-04-14T11:31:18.632Z,34.20
2019-04-14T11:34:01.920Z,36.90
2019-04-14T11:36:49.473Z,37.00
2019-04-14T11:39:21.744Z,36.20
2019-04-14T11:41:51.488Z,35.30
2019-04-14T11:44:21.247Z,34.30
2019-04-14T11:46:51.611Z,34.70
2019-04-14T11:49:21.374Z,36.10
2019-04-14T11:51:55.483Z,35.30
2019-04-14T11:54:22.929Z,36.30
2019-04-14T11:56:52.914Z,35.40
2019-04-14T11:59:25.232Z,37.20
2019-04-14T12:01:56.593Z,42.10
2019-04-14T12:04:27.916Z,39.00
2019-04-14T12:06:59.259Z,37.80
2019-04-14T12:09:30.590Z,38.70
2019-04-14T12:12:00.317Z,39.20
2019-04-14T12:14:30.370Z,39.30
2019-04-14T12:17:01.220Z,41.00
2019-04-14T12:19:31.012Z,38.90
2019-04-14T12:22:08.251Z,42.20
2019-04-14T12:24:32.178Z,41.50
2019-04-14T12:27:01.926Z,40.20
2019-04-14T12:29:32.557Z,42.10
2019-04-14T12:32:02.435Z,41.70
2019-04-14T12:34:33.027Z,41.00
2019-04-14T12:37:02.830Z,40.20
2019-04-14T12:39:32.536Z,42.60
2019-04-14T12:42:06.925Z,43.70
2019-04-14T12:44:41.267Z,42.30
2019-04-14T12:47:21.586Z,41.20
2019-04-14T12:50:09.174Z,41.40
2019-04-14T12:52:38.931Z,41.00
2019-04-14T12:55:09.024Z,41.70
2019-04-14T12:57:49.656Z,42.90
2019-04-14T13:00:34.869Z,42.90
2019-04-14T13:04:16.640Z,42.30
2019-04-14T13:07:58.374Z,44.30
2019-04-14T13:14:36.954Z,44.20
2019-04-14T13:18:19.129Z,43.50
2019-04-14T13:22:00.926Z,43.60
2019-04-14T13:25:42.873Z,41.60
2019-04-14T13:29:25.354Z,42.70
2019-04-14T13:33:07.141Z,44.90
2019-04-14T13:36:48.986Z,42.00
2019-04-14T13:40:30.956Z,39.60
2019-04-14T13:44:13.023Z,39.90
2019-04-14T13:47:56.356Z,43.10
2019-04-14T13:51:38.954Z,40.70
2019-04-14T13:55:21.496Z,42.30
2019-04-14T13:59:04.005Z,41.70
2019-04-14T14:01:51.696Z,41.50
2019-04-14T14:04:21.482Z,41.90
2019-04-14T14:06:51.243Z,41.10
2019-04-14T14:09:21.013Z,40.40
2019-04-14T14:11:58.315Z,41.40
2019-04-14T14:14:46.322Z,43.20
2019-04-14T14:17:20.788Z,41.60
2019-04-14T14:19:58.191Z,42.10
2019-04-14T14:22:29.512Z,41.80
2019-04-14T14:25:00.857Z,44.80
2019-04-14T14:27:30.623Z,42.50
2019-04-14T14:30:00.412Z,42.20
2019-04-14T14:32:31.729Z,39.50
2019-04-14T14:35:01.701Z,38.70
2019-04-14T14:37:31.453Z,40.50
2019-04-14T14:40:01.224Z,41.60
2019-04-14T14:42:30.995Z,41.60
2019-04-14T14:45:02.312Z,42.20
2019-04-14T14:47:33.725Z,42.10
2019-04-14T14:50:15.656Z,40.60
2019-04-14T14:52:45.466Z,41.70
2019-04-14T14:55:15.207Z,40.80
2019-04-14T14:57:44.988Z,41.90
2019-04-14T15:00:17.021Z,40.90
2019-04-14T15:02:46.772Z,38.70
2019-04-14T15:05:16.560Z,38.70
2019-04-14T15:07:47.480Z,38.30
2019-04-14T15:10:18.396Z,41.60
2019-04-14T15:12:48.129Z,40.80
2019-04-14T15:15:17.943Z,40.20
2019-04-14T15:17:47.800Z,41.80
2019-04-14T15:20:17.563Z,41.50
2019-04-14T15:22:47.337Z,38.90
2019-04-14T15:25:17.097Z,38.50
2019-04-14T15:27:47.933Z,40.70
2019-04-14T15:30:19.342Z,39.10
2019-04-14T15:32:49.347Z,38.60
2019-04-14T15:35:19.275Z,41.30
2019-04-14T15:37:49.053Z,40.80
2019-04-14T15:40:19.027Z,38.50
2019-04-14T15:42:48.835Z,38.00
2019-04-14T15:45:18.584Z,37.80
2019-04-14T15:47:48.346Z,38.60
2019-04-14T15:50:18.120Z,39.80
2019-04-14T15:52:47.859Z,39.10
2019-04-14T15:55:18.869Z,38.80
2019-04-14T15:57:50.263Z,39.30
2019-04-14T16:00:24.073Z,39.50
2019-04-14T16:02:55.392Z,38.00
2019-04-14T16:05:32.818Z,38.90
2019-04-14T16:08:20.638Z,39.10
2019-04-14T16:10:58.034Z,40.00
2019-04-14T16:13:32.557Z,41.10
2019-04-14T16:16:07.696Z,39.90
2019-04-14T16:18:39.009Z,41.70
2019-04-14T16:21:08.804Z,41.90
2019-04-14T16:23:50.015Z,42.70
2019-04-14T16:26:15.258Z,41.70
2019-04-14T16:28:58.533Z,41.70
2019-04-14T16:31:44.915Z,42.10
2019-04-14T16:34:16.289Z,41.20
2019-04-14T16:36:47.629Z,41.50
2019-04-14T16:39:17.480Z,42.90
2019-04-14T16:41:47.342Z,42.70
2019-04-14T16:44:18.173Z,41.20
2019-04-14T16:46:48.093Z,40.80
2019-04-14T16:49:17.896Z,41.70
2019-04-14T16:51:58.112Z,43.10
2019-04-14T16:54:41.382Z,41.90
2019-04-14T16:57:25.122Z,41.80
2019-04-14T16:59:55.089Z,42.90
2019-04-14T17:02:24.919Z,43.30
2019-04-14T17:04:54.805Z,44.60
2019-04-14T17:07:24.596Z,43.90
2019-04-14T17:09:54.402Z,44.70
2019-04-14T17:12:24.319Z,44.40
2019-04-14T17:15:01.709Z,44.40
2019-04-14T17:17:49.719Z,44.10
2019-04-14T17:20:21.104Z,45.50
2019-04-14T17:23:01.470Z,43.30
2019-04-14T17:25:32.809Z,43.40
2019-04-14T17:28:16.165Z,44.60
2019-04-14T17:30:47.526Z,44.50
2019-04-14T17:33:22.193Z,44.50
2019-04-14T17:35:53.718Z,44.50
2019-04-14T17:38:27.745Z,44.70
2019-04-14T17:41:05.509Z,44.60
2019-04-14T17:43:36.752Z,44.90
2019-04-14T17:46:17.412Z,44.90
2019-04-14T17:48:48.730Z,46.00
2019-04-14T17:51:22.774Z,45.20
2019-04-14T17:53:57.050Z,45.10
2019-04-14T17:56:28.383Z,45.60
2019-04-14T17:58:59.685Z,46.20
2019-04-14T18:01:37.010Z,45.70
2019-04-14T18:04:11.214Z,46.50
2019-04-14T18:06:52.774Z,47.30
2019-04-14T18:09:32.947Z,46.90
2019-04-14T18:12:07.386Z,46.70
2019-04-14T18:14:50.593Z,47.60
2019-04-14T18:17:38.298Z,46.90
2019-04-14T18:20:10.228Z,47.80
2019-04-14T18:22:40.567Z,47.20
2019-04-14T18:25:10.274Z,47.40
2019-04-14T18:27:44.649Z,48.00
2019-04-14T18:30:18.779Z,48.20
2019-04-14T18:32:50.136Z,48.10
2019-04-14T18:35:36.504Z,48.10
2019-04-14T18:38:07.912Z,47.70
2019-04-14T18:40:56.404Z,48.10
2019-04-14T18:43:45.964Z,47.90
2019-04-14T18:46:17.276Z,48.20
2019-04-14T18:48:57.410Z,47.80
2019-04-14T18:51:28.743Z,48.10
2019-04-14T18:54:00.062Z,48.40
2019-04-14T18:56:46.498Z,48.20
2019-04-14T18:59:17.815Z,48.60
2019-04-14T19:01:51.584Z,48.00
2019-04-14T19:04:21.321Z,49.30
2019-04-14T19:06:51.105Z,49.30
2019-04-14T19:09:20.861Z,49.20
2019-04-14T19:11:55.500Z,49.80
2019-04-14T19:14:26.791Z,50.00
2019-04-14T19:17:09.999Z,50.70
2019-04-14T19:20:00.857Z,50.40
2019-04-14T19:22:21.868Z,50.40
2019-04-14T19:24:51.623Z,51.30
2019-04-14T19:27:21.392Z,51.30
2019-04-14T19:29:51.253Z,51.70
2019-04-14T19:32:21.213Z,51.00
2019-04-14T19:34:50.999Z,51.70
2019-04-14T19:37:20.742Z,50.80
2019-04-14T19:39:50.501Z,50.70
2019-04-14T19:42:20.269Z,50.80
2019-04-14T19:44:50.032Z,51.30
2019-04-14T19:47:19.788Z,50.90
2019-04-14T19:49:49.550Z,50.70
2019-04-14T19:52:19.345Z,51.10
2019-04-14T19:54:49.069Z,51.20
2019-04-14T19:57:18.911Z,51.20
2019-04-14T19:59:48.673Z,51.30
2019-04-14T20:02:18.429Z,51.20
2019-04-14T20:04:48.271Z,50.60
2019-04-14T20:07:18.319Z,50.90
2019-04-14T20:09:48.057Z,51.00
2019-04-14T20:12:17.838Z,51.30
2019-04-14T20:14:47.580Z,51.30
2019-04-14T20:17:21.369Z,51.10
2019-04-14T20:20:04.721Z,50.80
2019-04-14T20:22:36.039Z,50.90
2019-04-14T20:25:08.143Z,50.80
2019-04-14T20:27:45.261Z,50.20
2019-04-14T20:30:16.567Z,50.20
2019-04-14T20:32:46.320Z,50.70
2019-04-14T20:35:16.654Z,50.00
2019-04-14T20:37:46.760Z,50.00
2019-04-14T20:40:16.497Z,49.40
2019-04-14T20:42:46.280Z,50.00
2019-04-14T20:45:16.204Z,49.60
2019-04-14T20:47:45.966Z,49.70
2019-04-14T20:50:15.915Z,49.50
2019-04-14T20:52:45.669Z,49.70
2019-04-14T20:55:16.328Z,49.10
2019-04-14T20:57:46.059Z,49.30
2019-04-14T21:00:16.021Z,49.00
2019-04-14T21:02:56.561Z,49.20
2019-04-14T21:05:27.862Z,49.30
2019-04-14T21:08:11.526Z,49.00
2019-04-14T21:10:48.893Z,48.70
2019-04-14T21:13:23.969Z,48.50
2019-04-14T21:15:55.313Z,48.90
2019-04-14T21:18:32.403Z,48.40
2019-04-14T21:21:03.722Z,48.90
2019-04-14T21:23:47.145Z,48.80
2019-04-14T21:26:26.973Z,48.20
2019-04-14T21:28:59.350Z,48.40
2019-04-14T21:31:33.389Z,48.60
2019-04-14T21:34:04.737Z,48.70
2019-04-14T21:36:45.075Z,48.70
2019-04-14T21:39:33.045Z,48.90
2019-04-14T21:42:02.720Z,49.10
2019-04-14T21:44:33.399Z,49.10
2019-04-14T21:47:04.103Z,48.80
2019-04-14T21:49:33.840Z,49.80
2019-04-14T21:52:18.060Z,48.50
2019-04-14T21:54:48.698Z,48.50
2019-04-14T21:57:22.900Z,48.80
2019-04-14T21:59:56.195Z,49.20
2019-04-14T22:02:44.113Z,49.60
2019-04-14T22:05:18.615Z,48.90
2019-04-14T22:07:50.907Z,48.60
2019-04-14T22:10:22.513Z,48.90
2019-04-14T22:12:52.455Z,48.50
2019-04-14T22:15:22.367Z,48.80
2019-04-14T22:17:52.282Z,49.20
2019-04-14T22:20:22.480Z,49.50
2019-04-14T22:22:53.519Z,49.40
2019-04-14T22:25:28.290Z,49.10
2019-04-14T22:27:58.389Z,48.90
2019-04-14T22:30:28.285Z,49.30
2019-04-14T22:32:58.301Z,49.70
2019-04-14T22:35:30.280Z,49.90
2019-04-14T22:38:01.427Z,49.50
2019-04-14T22:40:31.287Z,49.70
2019-04-14T22:43:02.175Z,49.90
2019-04-14T22:45:31.970Z,50.10
2019-04-14T22:48:02.669Z,50.50
2019-04-14T22:50:32.436Z,50.80
2019-04-14T22:53:02.228Z,50.70
2019-04-14T22:55:32.364Z,51.30
2019-04-14T22:58:02.078Z,50.80
2019-04-14T23:00:39.633Z,51.10
2019-04-14T23:03:11.178Z,51.70
2019-04-14T23:05:51.748Z,51.70
2019-04-14T23:08:35.201Z,52.50
2019-04-14T23:11:12.400Z,52.40
2019-04-14T23:13:52.426Z,52.20
2019-04-14T23:16:42.253Z,52.40
2019-04-14T23:19:13.576Z,52.60
2019-04-14T23:21:50.651Z,52.80
2019-04-14T23:24:21.956Z,52.90
2019-04-14T23:26:53.032Z,53.60
2019-04-14T23:29:23.001Z,53.30
2019-04-14T23:31:54.120Z,53.80
2019-04-14T23:34:23.856Z,53.50
2019-04-14T23:36:53.621Z,53.30
2019-04-14T23:39:23.392Z,53.60
2019-04-14T23:41:54.147Z,54.40
2019-04-14T23:44:23.976Z,53.80
2019-04-14T23:46:53.763Z,54.00
2019-04-14T23:49:23.536Z,54.50
2019-04-14T23:51:53.277Z,54.50
2019-04-14T23:54:23.028Z,55.00
2019-04-14T23:57:04.674Z,55.20
2019-04-14T23:59:24.205Z,55.20
